sensor_id;sensor_type;location;lat;lon;timestamp;P1;durP1;ratioP1;P2;durP2;ratioP2
8683;SDS011;4379;59.744;18.206;2023-04-24T00:00:48;0.30;;;0.30;;
8683;SDS011;4379;59.744;18.206;2023-04-24T00:03:17;0.40;;;0.40;;
8683;SDS011;4379;59.744;18.206;2023-04-24T00:05:47;0.30;;;0.30;;
8683;SDS011;4379;59.744;18.206;2023-04-24T00:08:15;0.30;;;0.30;;
8683;SDS011;4379;59.744;18.206;2023-04-24T00:10:42;0.33;;;0.33;;
8683;SDS011;4379;59.744;18.206;2023-04-24T00:13:10;0.40;;;0.40;;
8683;SDS011;4379;59.744;18.206;2023-04-24T00:15:37;0.30;;;0.30;;
8683;SDS011;4379;59.744;18.206;2023-04-24T00:18:05;0.30;;;0.30;;
8683;SDS011;4379;59.744;18.206;2023-04-24T00:20:32;0.20;;;0.20;;
8683;SDS011;4379;59.744;18.206;2023-04-24T00:23:02;0.20;;;0.20;;
8683;SDS011;4379;59.744;18.206;2023-04-24T00:25:30;0.20;;;0.20;;
8683;SDS011;4379;59.744;18.206;2023-04-24T00:27:57;0.20;;;0.20;;
8683;SDS011;4379;59.744;18.206;2023-04-24T00:30:25;0.30;;;0.30;;
8683;SDS011;4379;59.744;18.206;2023-04-24T00:32:52;0.83;;;0.30;;
8683;SDS011;4379;59.744;18.206;2023-04-24T00:35:20;0.30;;;0.30;;
8683;SDS011;4379;59.744;18.206;2023-04-24T00:37:47;1.00;;;0.30;;
8683;SDS011;4379;59.744;18.206;2023-04-24T00:40:15;0.30;;;0.30;;
8683;SDS011;4379;59.744;18.206;2023-04-24T00:42:43;0.30;;;0.30;;
8683;SDS011;4379;59.744;18.206;2023-04-24T00:45:11;0.30;;;0.30;;
8683;SDS011;4379;59.744;18.206;2023-04-24T00:47:40;0.20;;;0.20;;
8683;SDS011;4379;59.744;18.206;2023-04-24T00:50:09;0.30;;;0.30;;
8683;SDS011;4379;59.744;18.206;2023-04-24T00:52:37;0.43;;;0.20;;
8683;SDS011;4379;59.744;18.206;2023-04-24T00:55:07;0.30;;;0.30;;
8683;SDS011;4379;59.744;18.206;2023-04-24T00:57:35;0.20;;;0.20;;
8683;SDS011;4379;59.744;18.206;2023-04-24T01:00:04;0.20;;;0.20;;
8683;SDS011;4379;59.744;18.206;2023-04-24T01:02:34;1.07;;;0.20;;
8683;SDS011;4379;59.744;18.206;2023-04-24T01:05:02;0.30;;;0.30;;
8683;SDS011;4379;59.744;18.206;2023-04-24T01:07:30;0.20;;;0.20;;
8683;SDS011;4379;59.744;18.206;2023-04-24T01:09:58;0.30;;;0.30;;
8683;SDS011;4379;59.744;18.206;2023-04-24T01:12:25;0.20;;;0.20;;
8683;SDS011;4379;59.744;18.206;2023-04-24T01:14:56;0.20;;;0.20;;
8683;SDS011;4379;59.744;18.206;2023-04-24T01:17:23;0.30;;;0.30;;
8683;SDS011;4379;59.744;18.206;2023-04-24T01:19:51;0.23;;;0.23;;
8683;SDS011;4379;59.744;18.206;2023-04-24T01:22:23;0.30;;;0.30;;
8683;SDS011;4379;59.744;18.206;2023-04-24T01:24:51;0.30;;;0.30;;
8683;SDS011;4379;59.744;18.206;2023-04-24T01:27:19;0.20;;;0.20;;
8683;SDS011;4379;59.744;18.206;2023-04-24T01:29:47;0.23;;;0.23;;
8683;SDS011;4379;59.744;18.206;2023-04-24T01:32:15;0.30;;;0.30;;
8683;SDS011;4379;59.744;18.206;2023-04-24T01:34:43;0.20;;;0.20;;
8683;SDS011;4379;59.744;18.206;2023-04-24T01:37:11;0.43;;;0.30;;
8683;SDS011;4379;59.744;18.206;2023-04-24T01:39:39;0.30;;;0.30;;
8683;SDS011;4379;59.744;18.206;2023-04-24T01:42:07;0.30;;;0.30;;
8683;SDS011;4379;59.744;18.206;2023-04-24T01:44:35;0.30;;;0.30;;
8683;SDS011;4379;59.744;18.206;2023-04-24T01:47:02;0.37;;;0.30;;
8683;SDS011;4379;59.744;18.206;2023-04-24T01:49:30;0.33;;;0.33;;
8683;SDS011;4379;59.744;18.206;2023-04-24T01:51:59;0.30;;;0.30;;
8683;SDS011;4379;59.744;18.206;2023-04-24T01:54:27;0.40;;;0.40;;
8683;SDS011;4379;59.744;18.206;2023-04-24T01:56:54;0.20;;;0.20;;
8683;SDS011;4379;59.744;18.206;2023-04-24T01:59:22;0.33;;;0.33;;
8683;SDS011;4379;59.744;18.206;2023-04-24T02:01:52;0.30;;;0.30;;
8683;SDS011;4379;59.744;18.206;2023-04-24T02:04:19;0.40;;;0.40;;
8683;SDS011;4379;59.744;18.206;2023-04-24T02:06:46;0.20;;;0.20;;
8683;SDS011;4379;59.744;18.206;2023-04-24T02:09:14;0.40;;;0.40;;
8683;SDS011;4379;59.744;18.206;2023-04-24T02:11:41;0.30;;;0.30;;
8683;SDS011;4379;59.744;18.206;2023-04-24T02:14:09;0.40;;;0.40;;
8683;SDS011;4379;59.744;18.206;2023-04-24T02:16:36;0.33;;;0.33;;
8683;SDS011;4379;59.744;18.206;2023-04-24T02:19:04;0.43;;;0.43;;
8683;SDS011;4379;59.744;18.206;2023-04-24T02:21:31;0.63;;;0.53;;
8683;SDS011;4379;59.744;18.206;2023-04-24T02:23:59;0.50;;;0.50;;
8683;SDS011;4379;59.744;18.206;2023-04-24T02:26:27;0.73;;;0.60;;
8683;SDS011;4379;59.744;18.206;2023-04-24T02:28:54;0.70;;;0.70;;
8683;SDS011;4379;59.744;18.206;2023-04-24T02:31:22;0.43;;;0.43;;
8683;SDS011;4379;59.744;18.206;2023-04-24T02:33:49;0.50;;;0.50;;
8683;SDS011;4379;59.744;18.206;2023-04-24T02:36:16;0.80;;;0.80;;
8683;SDS011;4379;59.744;18.206;2023-04-24T02:38:44;0.70;;;0.70;;
8683;SDS011;4379;59.744;18.206;2023-04-24T02:41:12;0.63;;;0.60;;
8683;SDS011;4379;59.744;18.206;2023-04-24T02:43:39;0.63;;;0.50;;
8683;SDS011;4379;59.744;18.206;2023-04-24T02:46:06;0.57;;;0.57;;
8683;SDS011;4379;59.744;18.206;2023-04-24T02:48:34;0.60;;;0.60;;
8683;SDS011;4379;59.744;18.206;2023-04-24T02:51:01;0.70;;;0.70;;
8683;SDS011;4379;59.744;18.206;2023-04-24T02:53:29;0.50;;;0.50;;
8683;SDS011;4379;59.744;18.206;2023-04-24T02:55:57;0.87;;;0.67;;
8683;SDS011;4379;59.744;18.206;2023-04-24T02:58:25;0.50;;;0.50;;
8683;SDS011;4379;59.744;18.206;2023-04-24T03:00:58;0.43;;;0.43;;
8683;SDS011;4379;59.744;18.206;2023-04-24T03:03:27;0.50;;;0.50;;
8683;SDS011;4379;59.744;18.206;2023-04-24T03:05:54;0.67;;;0.67;;
8683;SDS011;4379;59.744;18.206;2023-04-24T03:08:22;0.80;;;0.60;;
8683;SDS011;4379;59.744;18.206;2023-04-24T03:10:52;0.50;;;0.50;;
8683;SDS011;4379;59.744;18.206;2023-04-24T03:13:20;0.60;;;0.60;;
8683;SDS011;4379;59.744;18.206;2023-04-24T03:15:47;0.50;;;0.50;;
8683;SDS011;4379;59.744;18.206;2023-04-24T03:18:14;1.07;;;0.70;;
8683;SDS011;4379;59.744;18.206;2023-04-24T03:20:42;1.50;;;1.17;;
8683;SDS011;4379;59.744;18.206;2023-04-24T03:23:11;0.90;;;0.90;;
8683;SDS011;4379;59.744;18.206;2023-04-24T03:25:39;0.83;;;0.83;;
8683;SDS011;4379;59.744;18.206;2023-04-24T03:28:09;1.00;;;0.70;;
8683;SDS011;4379;59.744;18.206;2023-04-24T03:30:36;0.83;;;0.70;;
8683;SDS011;4379;59.744;18.206;2023-04-24T03:33:04;0.60;;;0.60;;
8683;SDS011;4379;59.744;18.206;2023-04-24T03:35:31;0.70;;;0.70;;
8683;SDS011;4379;59.744;18.206;2023-04-24T03:37:59;0.90;;;0.90;;
8683;SDS011;4379;59.744;18.206;2023-04-24T03:40:27;1.13;;;0.90;;
8683;SDS011;4379;59.744;18.206;2023-04-24T03:42:56;0.80;;;0.80;;
8683;SDS011;4379;59.744;18.206;2023-04-24T03:45:23;0.90;;;0.90;;
8683;SDS011;4379;59.744;18.206;2023-04-24T03:47:51;0.70;;;0.70;;
8683;SDS011;4379;59.744;18.206;2023-04-24T03:50:18;0.80;;;0.80;;
8683;SDS011;4379;59.744;18.206;2023-04-24T03:52:46;0.70;;;0.70;;
8683;SDS011;4379;59.744;18.206;2023-04-24T03:55:13;0.57;;;0.57;;
8683;SDS011;4379;59.744;18.206;2023-04-24T03:57:41;0.80;;;0.80;;
8683;SDS011;4379;59.744;18.206;2023-04-24T04:00:08;0.90;;;0.90;;
8683;SDS011;4379;59.744;18.206;2023-04-24T04:02:36;0.73;;;0.73;;
8683;SDS011;4379;59.744;18.206;2023-04-24T04:05:04;0.70;;;0.70;;
8683;SDS011;4379;59.744;18.206;2023-04-24T04:07:32;1.00;;;1.00;;
8683;SDS011;4379;59.744;18.206;2023-04-24T04:09:59;1.10;;;1.10;;
8683;SDS011;4379;59.744;18.206;2023-04-24T04:12:27;1.03;;;1.00;;
8683;SDS011;4379;59.744;18.206;2023-04-24T04:14:54;0.90;;;0.90;;
8683;SDS011;4379;59.744;18.206;2023-04-24T04:17:22;1.03;;;1.03;;
8683;SDS011;4379;59.744;18.206;2023-04-24T04:19:49;1.20;;;1.20;;
8683;SDS011;4379;59.744;18.206;2023-04-24T04:22:17;1.20;;;1.10;;
8683;SDS011;4379;59.744;18.206;2023-04-24T04:24:44;1.20;;;1.20;;
8683;SDS011;4379;59.744;18.206;2023-04-24T04:27:13;1.67;;;1.57;;
8683;SDS011;4379;59.744;18.206;2023-04-24T04:29:40;1.47;;;1.37;;
8683;SDS011;4379;59.744;18.206;2023-04-24T04:32:09;1.77;;;1.67;;
8683;SDS011;4379;59.744;18.206;2023-04-24T04:34:36;1.90;;;1.80;;
8683;SDS011;4379;59.744;18.206;2023-04-24T04:37:04;2.07;;;1.97;;
8683;SDS011;4379;59.744;18.206;2023-04-24T04:39:32;2.30;;;2.20;;
8683;SDS011;4379;59.744;18.206;2023-04-24T04:41:59;2.27;;;2.10;;
8683;SDS011;4379;59.744;18.206;2023-04-24T04:44:27;2.20;;;2.00;;
8683;SDS011;4379;59.744;18.206;2023-04-24T04:46:56;2.10;;;2.00;;
8683;SDS011;4379;59.744;18.206;2023-04-24T04:49:24;1.90;;;1.87;;
8683;SDS011;4379;59.744;18.206;2023-04-24T04:51:51;2.53;;;2.33;;
8683;SDS011;4379;59.744;18.206;2023-04-24T04:54:19;2.30;;;2.20;;
8683;SDS011;4379;59.744;18.206;2023-04-24T04:56:47;2.20;;;2.10;;
8683;SDS011;4379;59.744;18.206;2023-04-24T04:59:17;2.60;;;2.30;;
8683;SDS011;4379;59.744;18.206;2023-04-24T05:01:44;2.10;;;2.00;;
8683;SDS011;4379;59.744;18.206;2023-04-24T05:04:12;2.70;;;2.60;;
8683;SDS011;4379;59.744;18.206;2023-04-24T05:06:39;2.50;;;2.40;;
8683;SDS011;4379;59.744;18.206;2023-04-24T05:09:07;3.13;;;2.90;;
8683;SDS011;4379;59.744;18.206;2023-04-24T05:11:34;2.57;;;2.47;;
8683;SDS011;4379;59.744;18.206;2023-04-24T05:14:02;2.57;;;2.43;;
8683;SDS011;4379;59.744;18.206;2023-04-24T05:16:29;2.50;;;2.40;;
8683;SDS011;4379;59.744;18.206;2023-04-24T05:18:57;2.73;;;2.53;;
8683;SDS011;4379;59.744;18.206;2023-04-24T05:21:25;2.53;;;2.40;;
8683;SDS011;4379;59.744;18.206;2023-04-24T05:23:56;2.37;;;2.27;;
8683;SDS011;4379;59.744;18.206;2023-04-24T05:26:23;2.23;;;2.13;;
8683;SDS011;4379;59.744;18.206;2023-04-24T05:28:51;2.10;;;2.00;;
8683;SDS011;4379;59.744;18.206;2023-04-24T05:31:21;2.43;;;2.10;;
8683;SDS011;4379;59.744;18.206;2023-04-24T05:33:48;2.50;;;2.30;;
8683;SDS011;4379;59.744;18.206;2023-04-24T05:36:16;1.73;;;1.70;;
8683;SDS011;4379;59.744;18.206;2023-04-24T05:38:43;1.60;;;1.57;;
8683;SDS011;4379;59.744;18.206;2023-04-24T05:41:11;1.73;;;1.70;;
8683;SDS011;4379;59.744;18.206;2023-04-24T05:43:38;2.00;;;1.90;;
8683;SDS011;4379;59.744;18.206;2023-04-24T05:46:05;1.70;;;1.60;;
8683;SDS011;4379;59.744;18.206;2023-04-24T05:48:33;1.43;;;1.43;;
8683;SDS011;4379;59.744;18.206;2023-04-24T05:51:00;1.83;;;1.73;;
8683;SDS011;4379;59.744;18.206;2023-04-24T05:53:28;1.70;;;1.60;;
8683;SDS011;4379;59.744;18.206;2023-04-24T05:55:55;1.70;;;1.60;;
8683;SDS011;4379;59.744;18.206;2023-04-24T05:58:23;1.60;;;1.50;;
8683;SDS011;4379;59.744;18.206;2023-04-24T06:00:50;1.90;;;1.63;;
8683;SDS011;4379;59.744;18.206;2023-04-24T06:03:17;1.43;;;1.43;;
8683;SDS011;4379;59.744;18.206;2023-04-24T06:05:45;1.63;;;1.63;;
8683;SDS011;4379;59.744;18.206;2023-04-24T06:08:13;1.60;;;1.50;;
8683;SDS011;4379;59.744;18.206;2023-04-24T06:10:40;2.07;;;1.97;;
8683;SDS011;4379;59.744;18.206;2023-04-24T06:13:07;2.00;;;1.90;;
8683;SDS011;4379;59.744;18.206;2023-04-24T06:15:35;1.80;;;1.70;;
8683;SDS011;4379;59.744;18.206;2023-04-24T06:18:02;1.80;;;1.70;;
8683;SDS011;4379;59.744;18.206;2023-04-24T06:20:30;2.27;;;1.93;;
8683;SDS011;4379;59.744;18.206;2023-04-24T06:22:58;2.10;;;2.00;;
8683;SDS011;4379;59.744;18.206;2023-04-24T06:25:25;2.67;;;1.93;;
8683;SDS011;4379;59.744;18.206;2023-04-24T06:27:53;2.23;;;2.13;;
8683;SDS011;4379;59.744;18.206;2023-04-24T06:30:22;2.20;;;2.10;;
8683;SDS011;4379;59.744;18.206;2023-04-24T06:32:50;2.60;;;2.40;;
8683;SDS011;4379;59.744;18.206;2023-04-24T06:35:17;2.30;;;2.20;;
8683;SDS011;4379;59.744;18.206;2023-04-24T06:37:45;2.70;;;2.03;;
8683;SDS011;4379;59.744;18.206;2023-04-24T06:40:12;2.50;;;2.30;;
8683;SDS011;4379;59.744;18.206;2023-04-24T06:42:40;2.00;;;1.90;;
8683;SDS011;4379;59.744;18.206;2023-04-24T06:45:09;3.17;;;2.50;;
8683;SDS011;4379;59.744;18.206;2023-04-24T06:47:37;3.17;;;2.07;;
8683;SDS011;4379;59.744;18.206;2023-04-24T06:50:05;2.30;;;2.20;;
8683;SDS011;4379;59.744;18.206;2023-04-24T06:52:32;2.23;;;2.03;;
8683;SDS011;4379;59.744;18.206;2023-04-24T06:55:00;2.83;;;2.10;;
8683;SDS011;4379;59.744;18.206;2023-04-24T06:57:29;2.50;;;2.23;;
8683;SDS011;4379;59.744;18.206;2023-04-24T06:59:58;2.17;;;1.97;;
8683;SDS011;4379;59.744;18.206;2023-04-24T07:02:26;2.87;;;1.80;;
8683;SDS011;4379;59.744;18.206;2023-04-24T07:04:53;2.03;;;1.90;;
8683;SDS011;4379;59.744;18.206;2023-04-24T07:07:21;1.67;;;1.57;;
8683;SDS011;4379;59.744;18.206;2023-04-24T07:09:50;1.80;;;1.70;;
8683;SDS011;4379;59.744;18.206;2023-04-24T07:12:18;2.00;;;1.80;;
8683;SDS011;4379;59.744;18.206;2023-04-24T07:14:47;2.13;;;1.93;;
8683;SDS011;4379;59.744;18.206;2023-04-24T07:17:14;1.90;;;1.80;;
8683;SDS011;4379;59.744;18.206;2023-04-24T07:19:42;1.63;;;1.53;;
8683;SDS011;4379;59.744;18.206;2023-04-24T07:22:09;1.73;;;1.63;;
8683;SDS011;4379;59.744;18.206;2023-04-24T07:24:43;1.70;;;1.60;;
8683;SDS011;4379;59.744;18.206;2023-04-24T07:27:11;1.70;;;1.60;;
8683;SDS011;4379;59.744;18.206;2023-04-24T07:29:41;2.30;;;2.07;;
8683;SDS011;4379;59.744;18.206;2023-04-24T07:32:09;1.70;;;1.60;;
8683;SDS011;4379;59.744;18.206;2023-04-24T07:34:36;1.97;;;1.87;;
8683;SDS011;4379;59.744;18.206;2023-04-24T07:37:04;1.80;;;1.70;;
8683;SDS011;4379;59.744;18.206;2023-04-24T07:39:31;2.10;;;2.00;;
8683;SDS011;4379;59.744;18.206;2023-04-24T07:41:59;1.70;;;1.70;;
8683;SDS011;4379;59.744;18.206;2023-04-24T07:44:28;1.90;;;1.80;;
8683;SDS011;4379;59.744;18.206;2023-04-24T07:46:56;1.93;;;1.83;;
8683;SDS011;4379;59.744;18.206;2023-04-24T07:49:23;1.87;;;1.77;;
8683;SDS011;4379;59.744;18.206;2023-04-24T07:51:51;1.77;;;1.70;;
8683;SDS011;4379;59.744;18.206;2023-04-24T07:54:19;1.97;;;1.87;;
8683;SDS011;4379;59.744;18.206;2023-04-24T07:56:46;1.83;;;1.73;;
8683;SDS011;4379;59.744;18.206;2023-04-24T07:59:14;1.93;;;1.83;;
8683;SDS011;4379;59.744;18.206;2023-04-24T08:01:42;1.80;;;1.70;;
8683;SDS011;4379;59.744;18.206;2023-04-24T08:04:10;1.90;;;1.80;;
8683;SDS011;4379;59.744;18.206;2023-04-24T08:06:38;1.63;;;1.63;;
8683;SDS011;4379;59.744;18.206;2023-04-24T08:09:05;1.43;;;1.33;;
8683;SDS011;4379;59.744;18.206;2023-04-24T08:11:33;1.63;;;1.60;;
8683;SDS011;4379;59.744;18.206;2023-04-24T08:14:00;1.50;;;1.40;;
8683;SDS011;4379;59.744;18.206;2023-04-24T08:16:27;1.83;;;1.73;;
8683;SDS011;4379;59.744;18.206;2023-04-24T08:18:55;1.40;;;1.40;;
8683;SDS011;4379;59.744;18.206;2023-04-24T08:21:22;1.37;;;1.37;;
8683;SDS011;4379;59.744;18.206;2023-04-24T08:23:50;1.50;;;1.50;;
8683;SDS011;4379;59.744;18.206;2023-04-24T08:26:17;1.63;;;1.40;;
8683;SDS011;4379;59.744;18.206;2023-04-24T08:28:45;1.50;;;1.50;;
8683;SDS011;4379;59.744;18.206;2023-04-24T08:31:12;1.70;;;1.60;;
8683;SDS011;4379;59.744;18.206;2023-04-24T08:33:40;1.43;;;1.43;;
8683;SDS011;4379;59.744;18.206;2023-04-24T08:36:07;1.80;;;1.70;;
8683;SDS011;4379;59.744;18.206;2023-04-24T08:38:35;1.47;;;1.47;;
8683;SDS011;4379;59.744;18.206;2023-04-24T08:41:02;1.70;;;1.60;;
8683;SDS011;4379;59.744;18.206;2023-04-24T08:43:31;1.57;;;1.47;;
8683;SDS011;4379;59.744;18.206;2023-04-24T08:46:03;1.40;;;1.40;;
8683;SDS011;4379;59.744;18.206;2023-04-24T08:48:37;1.70;;;1.60;;
8683;SDS011;4379;59.744;18.206;2023-04-24T08:51:08;1.73;;;1.63;;
8683;SDS011;4379;59.744;18.206;2023-04-24T08:53:39;1.60;;;1.50;;
8683;SDS011;4379;59.744;18.206;2023-04-24T08:56:07;1.50;;;1.50;;
8683;SDS011;4379;59.744;18.206;2023-04-24T08:58:34;1.73;;;1.63;;
8683;SDS011;4379;59.744;18.206;2023-04-24T09:01:02;1.27;;;1.27;;
8683;SDS011;4379;59.744;18.206;2023-04-24T09:03:32;1.50;;;1.50;;
8683;SDS011;4379;59.744;18.206;2023-04-24T09:06:00;1.53;;;1.53;;
8683;SDS011;4379;59.744;18.206;2023-04-24T09:08:29;1.50;;;1.50;;
8683;SDS011;4379;59.744;18.206;2023-04-24T09:10:57;1.70;;;1.60;;
8683;SDS011;4379;59.744;18.206;2023-04-24T09:13:25;1.73;;;1.63;;
8683;SDS011;4379;59.744;18.206;2023-04-24T09:15:53;1.90;;;1.80;;
8683;SDS011;4379;59.744;18.206;2023-04-24T09:18:23;1.63;;;1.60;;
8683;SDS011;4379;59.744;18.206;2023-04-24T09:21:02;1.60;;;1.50;;
8683;SDS011;4379;59.744;18.206;2023-04-24T09:23:31;1.60;;;1.50;;
8683;SDS011;4379;59.744;18.206;2023-04-24T09:26:00;1.70;;;1.70;;
8683;SDS011;4379;59.744;18.206;2023-04-24T09:28:32;1.60;;;1.60;;
8683;SDS011;4379;59.744;18.206;2023-04-24T09:31:11;1.50;;;1.40;;
8683;SDS011;4379;59.744;18.206;2023-04-24T09:33:55;1.60;;;1.50;;
8683;SDS011;4379;59.744;18.206;2023-04-24T09:36:32;2.03;;;1.93;;
8683;SDS011;4379;59.744;18.206;2023-04-24T09:39:13;1.30;;;1.30;;
8683;SDS011;4379;59.744;18.206;2023-04-24T09:41:52;2.20;;;1.60;;
8683;SDS011;4379;59.744;18.206;2023-04-24T09:44:26;1.43;;;1.43;;
8683;SDS011;4379;59.744;18.206;2023-04-24T09:46:56;1.47;;;1.47;;
8683;SDS011;4379;59.744;18.206;2023-04-24T09:52:03;1.20;;;1.20;;
8683;SDS011;4379;59.744;18.206;2023-04-24T09:54:35;1.30;;;1.30;;
8683;SDS011;4379;59.744;18.206;2023-04-24T09:57:07;1.37;;;1.23;;
8683;SDS011;4379;59.744;18.206;2023-04-24T09:59:35;1.00;;;1.00;;
8683;SDS011;4379;59.744;18.206;2023-04-24T10:02:18;1.20;;;1.20;;
8683;SDS011;4379;59.744;18.206;2023-04-24T10:04:56;1.50;;;1.50;;
8683;SDS011;4379;59.744;18.206;2023-04-24T10:07:26;1.50;;;1.40;;
8683;SDS011;4379;59.744;18.206;2023-04-24T10:09:55;1.40;;;1.40;;
8683;SDS011;4379;59.744;18.206;2023-04-24T10:12:23;1.20;;;1.20;;
8683;SDS011;4379;59.744;18.206;2023-04-24T10:14:51;1.40;;;1.40;;
8683;SDS011;4379;59.744;18.206;2023-04-24T10:17:20;1.43;;;1.40;;
8683;SDS011;4379;59.744;18.206;2023-04-24T10:19:48;1.73;;;1.63;;
8683;SDS011;4379;59.744;18.206;2023-04-24T10:22:16;1.70;;;1.60;;
8683;SDS011;4379;59.744;18.206;2023-04-24T10:24:44;1.50;;;1.50;;
8683;SDS011;4379;59.744;18.206;2023-04-24T10:27:14;1.53;;;1.53;;
8683;SDS011;4379;59.744;18.206;2023-04-24T10:29:43;1.40;;;1.40;;
8683;SDS011;4379;59.744;18.206;2023-04-24T10:32:11;1.50;;;1.50;;
8683;SDS011;4379;59.744;18.206;2023-04-24T10:34:39;1.43;;;1.43;;
8683;SDS011;4379;59.744;18.206;2023-04-24T10:37:06;1.93;;;1.80;;
8683;SDS011;4379;59.744;18.206;2023-04-24T10:39:34;2.00;;;1.90;;
8683;SDS011;4379;59.744;18.206;2023-04-24T10:42:13;1.67;;;1.67;;
8683;SDS011;4379;59.744;18.206;2023-04-24T10:44:42;1.73;;;1.67;;
8683;SDS011;4379;59.744;18.206;2023-04-24T10:47:13;2.70;;;1.80;;
8683;SDS011;4379;59.744;18.206;2023-04-24T10:49:41;2.60;;;1.93;;
8683;SDS011;4379;59.744;18.206;2023-04-24T10:52:09;1.63;;;1.53;;
8683;SDS011;4379;59.744;18.206;2023-04-24T10:59:52;2.17;;;2.07;;
8683;SDS011;4379;59.744;18.206;2023-04-24T11:02:40;1.97;;;1.90;;
8683;SDS011;4379;59.744;18.206;2023-04-24T11:05:17;1.93;;;1.83;;
8683;SDS011;4379;59.744;18.206;2023-04-24T11:10:46;1.77;;;1.70;;
8683;SDS011;4379;59.744;18.206;2023-04-24T11:13:17;2.13;;;2.03;;
8683;SDS011;4379;59.744;18.206;2023-04-24T11:18:42;1.97;;;1.87;;
8683;SDS011;4379;59.744;18.206;2023-04-24T11:21:17;1.93;;;1.83;;
8683;SDS011;4379;59.744;18.206;2023-04-24T11:23:45;2.40;;;2.30;;
8683;SDS011;4379;59.744;18.206;2023-04-24T11:26:21;2.40;;;2.00;;
8683;SDS011;4379;59.744;18.206;2023-04-24T11:28:51;2.30;;;2.10;;
8683;SDS011;4379;59.744;18.206;2023-04-24T11:31:38;1.80;;;1.70;;
8683;SDS011;4379;59.744;18.206;2023-04-24T11:36:45;2.20;;;2.10;;
8683;SDS011;4379;59.744;18.206;2023-04-24T11:39:14;2.03;;;1.87;;
8683;SDS011;4379;59.744;18.206;2023-04-24T11:41:42;2.00;;;1.80;;
8683;SDS011;4379;59.744;18.206;2023-04-24T11:44:09;1.90;;;1.80;;
8683;SDS011;4379;59.744;18.206;2023-04-24T11:46:38;1.80;;;1.70;;
8683;SDS011;4379;59.744;18.206;2023-04-24T11:49:07;1.83;;;1.73;;
8683;SDS011;4379;59.744;18.206;2023-04-24T11:51:35;1.87;;;1.77;;
8683;SDS011;4379;59.744;18.206;2023-04-24T11:54:18;1.80;;;1.70;;
8683;SDS011;4379;59.744;18.206;2023-04-24T11:56:46;2.20;;;2.10;;
8683;SDS011;4379;59.744;18.206;2023-04-24T11:59:14;2.10;;;2.00;;
8683;SDS011;4379;59.744;18.206;2023-04-24T12:01:42;2.27;;;2.17;;
8683;SDS011;4379;59.744;18.206;2023-04-24T12:04:12;2.07;;;1.97;;
8683;SDS011;4379;59.744;18.206;2023-04-24T12:06:40;1.60;;;1.60;;
8683;SDS011;4379;59.744;18.206;2023-04-24T12:09:25;2.00;;;1.90;;
8683;SDS011;4379;59.744;18.206;2023-04-24T12:11:53;1.90;;;1.80;;
8683;SDS011;4379;59.744;18.206;2023-04-24T12:14:24;1.90;;;1.80;;
8683;SDS011;4379;59.744;18.206;2023-04-24T12:16:52;2.37;;;2.20;;
8683;SDS011;4379;59.744;18.206;2023-04-24T12:19:20;1.60;;;1.60;;
8683;SDS011;4379;59.744;18.206;2023-04-24T12:22:01;2.03;;;1.90;;
8683;SDS011;4379;59.744;18.206;2023-04-24T12:24:31;2.03;;;1.93;;
8683;SDS011;4379;59.744;18.206;2023-04-24T12:26:59;2.20;;;2.10;;
8683;SDS011;4379;59.744;18.206;2023-04-24T12:29:31;2.10;;;2.00;;
8683;SDS011;4379;59.744;18.206;2023-04-24T12:31:58;2.37;;;2.20;;
8683;SDS011;4379;59.744;18.206;2023-04-24T12:34:26;1.97;;;1.87;;
8683;SDS011;4379;59.744;18.206;2023-04-24T12:36:53;2.00;;;1.90;;
8683;SDS011;4379;59.744;18.206;2023-04-24T12:39:21;2.20;;;2.10;;
8683;SDS011;4379;59.744;18.206;2023-04-24T12:41:56;2.17;;;2.07;;
8683;SDS011;4379;59.744;18.206;2023-04-24T12:44:29;2.20;;;2.10;;
8683;SDS011;4379;59.744;18.206;2023-04-24T12:46:58;2.00;;;1.90;;
8683;SDS011;4379;59.744;18.206;2023-04-24T12:49:26;2.10;;;2.00;;
8683;SDS011;4379;59.744;18.206;2023-04-24T12:51:54;1.87;;;1.83;;
8683;SDS011;4379;59.744;18.206;2023-04-24T12:54:22;2.40;;;1.93;;
8683;SDS011;4379;59.744;18.206;2023-04-24T12:56:50;1.90;;;1.80;;
8683;SDS011;4379;59.744;18.206;2023-04-24T12:59:19;1.77;;;1.63;;
8683;SDS011;4379;59.744;18.206;2023-04-24T13:01:47;1.97;;;1.87;;
8683;SDS011;4379;59.744;18.206;2023-04-24T13:04:14;1.80;;;1.70;;
8683;SDS011;4379;59.744;18.206;2023-04-24T13:06:43;2.10;;;2.00;;
8683;SDS011;4379;59.744;18.206;2023-04-24T13:09:11;2.53;;;1.80;;
8683;SDS011;4379;59.744;18.206;2023-04-24T13:11:41;2.17;;;2.03;;
8683;SDS011;4379;59.744;18.206;2023-04-24T13:14:08;2.20;;;2.10;;
8683;SDS011;4379;59.744;18.206;2023-04-24T13:16:36;2.27;;;2.17;;
8683;SDS011;4379;59.744;18.206;2023-04-24T13:19:03;2.30;;;2.10;;
8683;SDS011;4379;59.744;18.206;2023-04-24T13:21:31;1.97;;;1.87;;
8683;SDS011;4379;59.744;18.206;2023-04-24T13:23:58;2.20;;;2.10;;
8683;SDS011;4379;59.744;18.206;2023-04-24T13:26:26;1.60;;;1.60;;
8683;SDS011;4379;59.744;18.206;2023-04-24T13:28:54;1.90;;;1.80;;
8683;SDS011;4379;59.744;18.206;2023-04-24T13:31:21;2.43;;;2.33;;
8683;SDS011;4379;59.744;18.206;2023-04-24T13:33:49;2.30;;;2.20;;
8683;SDS011;4379;59.744;18.206;2023-04-24T13:36:16;2.17;;;2.07;;
8683;SDS011;4379;59.744;18.206;2023-04-24T13:38:44;2.30;;;2.20;;
8683;SDS011;4379;59.744;18.206;2023-04-24T13:41:11;2.97;;;2.43;;
8683;SDS011;4379;59.744;18.206;2023-04-24T13:43:39;2.60;;;2.20;;
8683;SDS011;4379;59.744;18.206;2023-04-24T13:46:09;2.40;;;2.30;;
8683;SDS011;4379;59.744;18.206;2023-04-24T13:48:37;2.40;;;2.30;;
8683;SDS011;4379;59.744;18.206;2023-04-24T13:51:04;2.83;;;2.63;;
8683;SDS011;4379;59.744;18.206;2023-04-24T13:53:32;2.40;;;2.30;;
8683;SDS011;4379;59.744;18.206;2023-04-24T13:56:02;2.30;;;2.10;;
8683;SDS011;4379;59.744;18.206;2023-04-24T13:58:30;2.17;;;2.07;;
8683;SDS011;4379;59.744;18.206;2023-04-24T14:00:57;2.30;;;2.10;;
8683;SDS011;4379;59.744;18.206;2023-04-24T14:03:25;2.70;;;2.23;;
8683;SDS011;4379;59.744;18.206;2023-04-24T14:05:53;2.20;;;2.10;;
8683;SDS011;4379;59.744;18.206;2023-04-24T14:08:20;2.40;;;2.20;;
8683;SDS011;4379;59.744;18.206;2023-04-24T14:10:47;2.30;;;2.20;;
8683;SDS011;4379;59.744;18.206;2023-04-24T14:13:15;2.07;;;1.97;;
8683;SDS011;4379;59.744;18.206;2023-04-24T14:15:43;2.20;;;2.10;;
8683;SDS011;4379;59.744;18.206;2023-04-24T14:18:10;2.87;;;2.20;;
8683;SDS011;4379;59.744;18.206;2023-04-24T14:20:38;2.60;;;2.40;;
8683;SDS011;4379;59.744;18.206;2023-04-24T14:23:06;2.30;;;2.20;;
8683;SDS011;4379;59.744;18.206;2023-04-24T14:25:34;2.60;;;2.40;;
8683;SDS011;4379;59.744;18.206;2023-04-24T14:28:05;2.60;;;2.50;;
8683;SDS011;4379;59.744;18.206;2023-04-24T14:30:35;2.30;;;2.20;;
8683;SDS011;4379;59.744;18.206;2023-04-24T14:33:04;2.20;;;2.10;;
8683;SDS011;4379;59.744;18.206;2023-04-24T14:35:34;2.40;;;2.20;;
8683;SDS011;4379;59.744;18.206;2023-04-24T14:38:02;2.03;;;1.93;;
8683;SDS011;4379;59.744;18.206;2023-04-24T14:40:29;2.37;;;2.27;;
8683;SDS011;4379;59.744;18.206;2023-04-24T14:43:17;2.30;;;2.20;;
8683;SDS011;4379;59.744;18.206;2023-04-24T14:45:45;2.20;;;2.10;;
8683;SDS011;4379;59.744;18.206;2023-04-24T14:48:12;2.20;;;2.10;;
8683;SDS011;4379;59.744;18.206;2023-04-24T14:50:43;2.00;;;1.90;;
8683;SDS011;4379;59.744;18.206;2023-04-24T14:53:12;2.10;;;2.00;;
8683;SDS011;4379;59.744;18.206;2023-04-24T14:55:39;2.60;;;2.40;;
8683;SDS011;4379;59.744;18.206;2023-04-24T14:58:07;2.20;;;2.10;;
8683;SDS011;4379;59.744;18.206;2023-04-24T15:00:34;1.73;;;1.73;;
8683;SDS011;4379;59.744;18.206;2023-04-24T15:03:02;2.10;;;2.00;;
8683;SDS011;4379;59.744;18.206;2023-04-24T15:05:30;2.20;;;2.10;;
8683;SDS011;4379;59.744;18.206;2023-04-24T15:07:59;1.93;;;1.93;;
8683;SDS011;4379;59.744;18.206;2023-04-24T15:10:26;2.40;;;2.20;;
8683;SDS011;4379;59.744;18.206;2023-04-24T15:12:53;2.20;;;2.10;;
8683;SDS011;4379;59.744;18.206;2023-04-24T15:15:21;2.30;;;2.20;;
8683;SDS011;4379;59.744;18.206;2023-04-24T15:17:49;2.07;;;1.97;;
8683;SDS011;4379;59.744;18.206;2023-04-24T15:20:16;2.20;;;2.10;;
8683;SDS011;4379;59.744;18.206;2023-04-24T15:22:44;2.30;;;2.20;;
8683;SDS011;4379;59.744;18.206;2023-04-24T15:25:12;2.20;;;2.10;;